sensor_id;sensor_type;location;lat;lon;timestamp;temperature;humidity
6536;DHT22;34330;52.08032700;5.40923460;2022-08-19T00:01:28;22.90;76.80
6536;DHT22;34330;52.08032700;5.40923460;2022-08-19T00:03:57;22.80;76.80
6536;DHT22;34330;52.08032700;5.40923460;2022-08-19T00:06:26;22.80;77.10
6536;DHT22;34330;52.08032700;5.40923460;2022-08-19T00:08:57;22.80;77.30
6536;DHT22;34330;52.08032700;5.40923460;2022-08-19T00:11:26;24.90;79.40
6536;DHT22;34330;52.08032700;5.40923460;2022-08-19T00:13:55;22.50;78.10
6536;DHT22;34330;52.08032700;5.40923460;2022-08-19T00:16:24;22.50;78.40
6536;DHT22;34330;52.08032700;5.40923460;2022-08-19T00:18:53;22.40;79.10
6536;DHT22;34330;52.08032700;5.40923460;2022-08-19T00:21:22;22.40;79.00
6536;DHT22;34330;52.08032700;5.40923460;2022-08-19T00:23:50;22.40;78.60
6536;DHT22;34330;52.08032700;5.40923460;2022-08-19T00:26:19;22.50;78.20
6536;DHT22;34330;52.08032700;5.40923460;2022-08-19T00:28:48;22.50;78.30
6536;DHT22;34330;52.08032700;5.40923460;2022-08-19T00:31:16;22.50;77.80
6536;DHT22;34330;52.08032700;5.40923460;2022-08-19T00:33:43;22.50;77.80
6536;DHT22;34330;52.08032700;5.40923460;2022-08-19T00:36:12;22.40;77.60
6536;DHT22;34330;52.08032700;5.40923460;2022-08-19T00:38:40;22.40;77.70
6536;DHT22;34330;52.08032700;5.40923460;2022-08-19T00:41:10;22.40;77.80
6536;DHT22;34330;52.08032700;5.40923460;2022-08-19T00:43:41;24.30;79.80
6536;DHT22;34330;52.08032700;5.40923460;2022-08-19T00:46:09;22.30;77.70
6536;DHT22;34330;52.08032700;5.40923460;2022-08-19T00:48:37;22.30;77.60
6536;DHT22;34330;52.08032700;5.40923460;2022-08-19T00:51:05;22.30;77.70
6536;DHT22;34330;52.08032700;5.40923460;2022-08-19T00:53:33;22.30;77.80
6536;DHT22;34330;52.08032700;5.40923460;2022-08-19T00:56:02;22.20;77.70
6536;DHT22;34330;52.08032700;5.40923460;2022-08-19T00:58:34;22.20;78.00
6536;DHT22;34330;52.08032700;5.40923460;2022-08-19T01:01:04;22.20;78.10
6536;DHT22;34330;52.08032700;5.40923460;2022-08-19T01:03:34;22.20;77.90
6536;DHT22;34330;52.08032700;5.40923460;2022-08-19T01:06:22;23.60;79.20
6536;DHT22;34330;52.08032700;5.40923460;2022-08-19T01:08:50;22.10;77.60
6536;DHT22;34330;52.08032700;5.40923460;2022-08-19T01:11:18;22.10;77.70
6536;DHT22;34330;52.08032700;5.40923460;2022-08-19T01:13:46;22.00;77.60
6536;DHT22;34330;52.08032700;5.40923460;2022-08-19T01:16:19;22.00;77.70
6536;DHT22;34330;52.08032700;5.40923460;2022-08-19T01:18:48;22.00;78.00
6536;DHT22;34330;52.08032700;5.40923460;2022-08-19T01:21:22;22.00;77.70
6536;DHT22;34330;52.08032700;5.40923460;2022-08-19T01:23:55;22.70;78.80
6536;DHT22;34330;52.08032700;5.40923460;2022-08-19T01:26:25;24.90;80.70
6536;DHT22;34330;52.08032700;5.40923460;2022-08-19T01:28:56;21.80;78.00
6536;DHT22;34330;52.08032700;5.40923460;2022-08-19T01:31:29;21.80;78.10
6536;DHT22;34330;52.08032700;5.40923460;2022-08-19T01:34:00;21.80;78.10
6536;DHT22;34330;52.08032700;5.40923460;2022-08-19T01:36:31;21.70;78.20
6536;DHT22;34330;52.08032700;5.40923460;2022-08-19T01:39:02;21.70;78.40
6536;DHT22;34330;52.08032700;5.40923460;2022-08-19T01:41:31;21.70;79.30
6536;DHT22;34330;52.08032700;5.40923460;2022-08-19T01:43:59;21.70;78.20
6536;DHT22;34330;52.08032700;5.40923460;2022-08-19T01:46:46;23.80;80.20
6536;DHT22;34330;52.08032700;5.40923460;2022-08-19T01:49:15;23.30;80.30
6536;DHT22;34330;52.08032700;5.40923460;2022-08-19T01:51:43;21.60;78.60
6536;DHT22;34330;52.08032700;5.40923460;2022-08-19T01:54:14;21.90;80.20
6536;DHT22;34330;52.08032700;5.40923460;2022-08-19T01:56:56;21.40;80.10
6536;DHT22;34330;52.08032700;5.40923460;2022-08-19T01:59:25;21.40;79.70
6536;DHT22;34330;52.08032700;5.40923460;2022-08-19T02:01:53;21.50;79.30
6536;DHT22;34330;52.08032700;5.40923460;2022-08-19T02:04:21;21.50;79.10
6536;DHT22;34330;52.08032700;5.40923460;2022-08-19T02:06:49;24.30;81.70
6536;DHT22;34330;52.08032700;5.40923460;2022-08-19T02:09:19;21.50;78.80
6536;DHT22;34330;52.08032700;5.40923460;2022-08-19T02:11:47;21.50;78.80
6536;DHT22;34330;52.08032700;5.40923460;2022-08-19T02:14:15;21.40;78.50
6536;DHT22;34330;52.08032700;5.40923460;2022-08-19T02:16:42;21.50;78.60
6536;DHT22;34330;52.08032700;5.40923460;2022-08-19T02:19:10;21.40;78.50
6536;DHT22;34330;52.08032700;5.40923460;2022-08-19T02:21:38;21.40;78.50
6536;DHT22;34330;52.08032700;5.40923460;2022-08-19T02:24:06;21.40;78.50
6536;DHT22;34330;52.08032700;5.40923460;2022-08-19T02:26:36;21.40;78.60
6536;DHT22;34330;52.08032700;5.40923460;2022-08-19T02:29:04;21.30;78.80
6536;DHT22;34330;52.08032700;5.40923460;2022-08-19T02:31:31;21.30;78.80
6536;DHT22;34330;52.08032700;5.40923460;2022-08-19T02:34:00;21.30;79.00
6536;DHT22;34330;52.08032700;5.40923460;2022-08-19T02:36:28;21.20;79.00
6536;DHT22;34330;52.08032700;5.40923460;2022-08-19T02:38:56;21.20;79.00
6536;DHT22;34330;52.08032700;5.40923460;2022-08-19T02:41:26;21.20;78.90
6536;DHT22;34330;52.08032700;5.40923460;2022-08-19T02:43:57;21.20;79.40
6536;DHT22;34330;52.08032700;5.40923460;2022-08-19T02:46:47;21.20;79.50
6536;DHT22;34330;52.08032700;5.40923460;2022-08-19T02:49:18;21.00;80.20
6536;DHT22;34330;52.08032700;5.40923460;2022-08-19T02:51:47;23.90;82.90
6536;DHT22;34330;52.08032700;5.40923460;2022-08-19T02:54:15;21.00;79.70
6536;DHT22;34330;52.08032700;5.40923460;2022-08-19T02:56:44;21.00;79.60
6536;DHT22;34330;52.08032700;5.40923460;2022-08-19T02:59:13;21.00;79.60
6536;DHT22;34330;52.08032700;5.40923460;2022-08-19T03:01:42;21.00;79.50
6536;DHT22;34330;52.08032700;5.40923460;2022-08-19T03:04:13;21.00;79.40
6536;DHT22;34330;52.08032700;5.40923460;2022-08-19T03:06:44;21.00;79.70
6536;DHT22;34330;52.08032700;5.40923460;2022-08-19T03:09:12;21.00;79.70
6536;DHT22;34330;52.08032700;5.40923460;2022-08-19T03:11:40;21.00;79.70
6536;DHT22;34330;52.08032700;5.40923460;2022-08-19T03:14:10;21.00;79.40
6536;DHT22;34330;52.08032700;5.40923460;2022-08-19T03:16:43;20.90;79.60
6536;DHT22;34330;52.08032700;5.40923460;2022-08-19T03:19:12;20.90;79.70
6536;DHT22;34330;52.08032700;5.40923460;2022-08-19T03:21:40;20.90;79.60
6536;DHT22;34330;52.08032700;5.40923460;2022-08-19T03:24:11;20.90;79.70
6536;DHT22;34330;52.08032700;5.40923460;2022-08-19T03:26:41;20.80;79.60
6536;DHT22;34330;52.08032700;5.40923460;2022-08-19T03:29:10;20.80;79.70
6536;DHT22;34330;52.08032700;5.40923460;2022-08-19T03:31:41;20.80;79.50
6536;DHT22;34330;52.08032700;5.40923460;2022-08-19T03:34:21;20.80;79.90
6536;DHT22;34330;52.08032700;5.40923460;2022-08-19T03:36:49;20.70;80.00
6536;DHT22;34330;52.08032700;5.40923460;2022-08-19T03:39:18;20.70;79.70
6536;DHT22;34330;52.08032700;5.40923460;2022-08-19T03:41:47;20.70;79.80
6536;DHT22;34330;52.08032700;5.40923460;2022-08-19T03:44:36;20.60;81.00
6536;DHT22;34330;52.08032700;5.40923460;2022-08-19T03:47:06;20.50;80.80
6536;DHT22;34330;52.08032700;5.40923460;2022-08-19T03:49:34;20.60;80.70
6536;DHT22;34330;52.08032700;5.40923460;2022-08-19T03:52:04;20.60;80.40
6536;DHT22;34330;52.08032700;5.40923460;2022-08-19T03:54:34;20.60;80.60
6536;DHT22;34330;52.08032700;5.40923460;2022-08-19T03:57:03;20.60;80.20
6536;DHT22;34330;52.08032700;5.40923460;2022-08-19T03:59:33;20.60;80.40
6536;DHT22;34330;52.08032700;5.40923460;2022-08-19T04:02:07;20.60;80.30
6536;DHT22;34330;52.08032700;5.40923460;2022-08-19T04:04:37;20.50;80.00
6536;DHT22;34330;52.08032700;5.40923460;2022-08-19T04:07:05;20.50;80.10
6536;DHT22;34330;52.08032700;5.40923460;2022-08-19T04:09:33;20.50;80.60
6536;DHT22;34330;52.08032700;5.40923460;2022-08-19T04:12:04;20.40;79.70
6536;DHT22;34330;52.08032700;5.40923460;2022-08-19T04:14:34;21.20;81.00
6536;DHT22;34330;52.08032700;5.40923460;2022-08-19T04:17:02;20.30;80.50
6536;DHT22;34330;52.08032700;5.40923460;2022-08-19T04:19:34;20.30;80.40
6536;DHT22;34330;52.08032700;5.40923460;2022-08-19T04:22:03;20.20;80.70
6536;DHT22;34330;52.08032700;5.40923460;2022-08-19T04:24:32;20.20;80.40
6536;DHT22;34330;52.08032700;5.40923460;2022-08-19T04:27:01;20.20;80.90
6536;DHT22;34330;52.08032700;5.40923460;2022-08-19T04:29:30;20.10;80.80
6536;DHT22;34330;52.08032700;5.40923460;2022-08-19T04:31:59;20.10;80.90
6536;DHT22;34330;52.08032700;5.40923460;2022-08-19T04:34:37;20.00;82.00
6536;DHT22;34330;52.08032700;5.40923460;2022-08-19T04:37:26;21.60;83.80
6536;DHT22;34330;52.08032700;5.40923460;2022-08-19T04:40:03;19.90;83.10
6536;DHT22;34330;52.08032700;5.40923460;2022-08-19T04:42:49;20.40;83.50
6536;DHT22;34330;52.08032700;5.40923460;2022-08-19T04:45:17;19.90;82.30
6536;DHT22;34330;52.08032700;5.40923460;2022-08-19T04:47:48;20.00;82.00
6536;DHT22;34330;52.08032700;5.40923460;2022-08-19T04:50:26;20.00;82.00
6536;DHT22;34330;52.08032700;5.40923460;2022-08-19T04:52:54;20.10;81.70
6536;DHT22;34330;52.08032700;5.40923460;2022-08-19T04:55:23;20.10;81.50
6536;DHT22;34330;52.08032700;5.40923460;2022-08-19T04:57:53;20.10;81.50
6536;DHT22;34330;52.08032700;5.40923460;2022-08-19T05:00:21;20.00;81.40
6536;DHT22;34330;52.08032700;5.40923460;2022-08-19T05:02:49;20.00;81.40
6536;DHT22;34330;52.08032700;5.40923460;2022-08-19T05:05:17;20.00;81.50
6536;DHT22;34330;52.08032700;5.40923460;2022-08-19T05:07:47;20.00;81.70
6536;DHT22;34330;52.08032700;5.40923460;2022-08-19T05:10:15;20.00;81.70
6536;DHT22;34330;52.08032700;5.40923460;2022-08-19T05:12:43;20.00;81.70
6536;DHT22;34330;52.08032700;5.40923460;2022-08-19T05:15:11;20.00;81.70
6536;DHT22;34330;52.08032700;5.40923460;2022-08-19T05:17:39;20.00;81.80
6536;DHT22;34330;52.08032700;5.40923460;2022-08-19T05:20:28;20.00;81.80
6536;DHT22;34330;52.08032700;5.40923460;2022-08-19T05:23:15;20.00;81.80
6536;DHT22;34330;52.08032700;5.40923460;2022-08-19T05:25:48;20.70;82.20
6536;DHT22;34330;52.08032700;5.40923460;2022-08-19T05:28:16;19.90;81.00
6536;DHT22;34330;52.08032700;5.40923460;2022-08-19T05:30:45;19.90;81.80
6536;DHT22;34330;52.08032700;5.40923460;2022-08-19T05:33:17;19.90;81.90
6536;DHT22;34330;52.08032700;5.40923460;2022-08-19T05:35:45;19.80;83.10
6536;DHT22;34330;52.08032700;5.40923460;2022-08-19T05:38:16;19.90;83.40
6536;DHT22;34330;52.08032700;5.40923460;2022-08-19T05:40:45;20.10;83.90
6536;DHT22;34330;52.08032700;5.40923460;2022-08-19T05:43:14;20.00;83.50
6536;DHT22;34330;52.08032700;5.40923460;2022-08-19T05:45:43;20.00;83.50
6536;DHT22;34330;52.08032700;5.40923460;2022-08-19T05:48:12;20.10;83.90
6536;DHT22;34330;52.08032700;5.40923460;2022-08-19T05:50:41;20.10;84.10
6536;DHT22;34330;52.08032700;5.40923460;2022-08-19T05:53:09;20.20;84.10
6536;DHT22;34330;52.08032700;5.40923460;2022-08-19T05:55:38;20.20;84.20
6536;DHT22;34330;52.08032700;5.40923460;2022-08-19T05:58:06;20.60;84.80
6536;DHT22;34330;52.08032700;5.40923460;2022-08-19T06:00:35;20.30;84.60
6536;DHT22;34330;52.08032700;5.40923460;2022-08-19T06:03:04;20.30;84.80
6536;DHT22;34330;52.08032700;5.40923460;2022-08-19T06:05:38;20.40;85.10
6536;DHT22;34330;52.08032700;5.40923460;2022-08-19T06:08:17;20.40;84.80
6536;DHT22;34330;52.08032700;5.40923460;2022-08-19T06:11:12;20.60;85.30
6536;DHT22;34330;52.08032700;5.40923460;2022-08-19T06:13:40;20.50;86.20
6536;DHT22;34330;52.08032700;5.40923460;2022-08-19T06:16:08;20.60;85.60
6536;DHT22;34330;52.08032700;5.40923460;2022-08-19T06:18:36;20.60;86.20
6536;DHT22;34330;52.08032700;5.40923460;2022-08-19T06:21:04;20.70;86.70
6536;DHT22;34330;52.08032700;5.40923460;2022-08-19T06:23:32;20.80;87.30
6536;DHT22;34330;52.08032700;5.40923460;2022-08-19T06:26:02;20.90;87.70
6536;DHT22;34330;52.08032700;5.40923460;2022-08-19T06:28:31;20.90;88.20
6536;DHT22;34330;52.08032700;5.40923460;2022-08-19T06:31:04;21.00;88.40
6536;DHT22;34330;52.08032700;5.40923460;2022-08-19T06:33:33;21.10;89.10
6536;DHT22;34330;52.08032700;5.40923460;2022-08-19T06:36:01;21.20;88.60
6536;DHT22;34330;52.08032700;5.40923460;2022-08-19T06:38:29;21.30;89.00
6536;DHT22;34330;52.08032700;5.40923460;2022-08-19T06:41:02;21.30;89.10
6536;DHT22;34330;52.08032700;5.40923460;2022-08-19T06:43:33;21.50;89.50
6536;DHT22;34330;52.08032700;5.40923460;2022-08-19T06:46:11;21.40;90.30
6536;DHT22;34330;52.08032700;5.40923460;2022-08-19T06:48:40;21.50;90.50
6536;DHT22;34330;52.08032700;5.40923460;2022-08-19T06:51:12;21.70;90.20
6536;DHT22;34330;52.08032700;5.40923460;2022-08-19T06:53:45;21.80;90.10
6536;DHT22;34330;52.08032700;5.40923460;2022-08-19T06:56:17;21.80;89.70
6536;DHT22;34330;52.08032700;5.40923460;2022-08-19T06:58:45;21.90;89.70
6536;DHT22;34330;52.08032700;5.40923460;2022-08-19T07:01:14;22.00;89.20
6536;DHT22;34330;52.08032700;5.40923460;2022-08-19T07:03:43;22.10;88.90
6536;DHT22;34330;52.08032700;5.40923460;2022-08-19T07:06:14;22.10;88.80
6536;DHT22;34330;52.08032700;5.40923460;2022-08-19T07:09:04;22.20;89.00
6536;DHT22;34330;52.08032700;5.40923460;2022-08-19T07:11:34;22.20;88.60
6536;DHT22;34330;52.08032700;5.40923460;2022-08-19T07:14:02;22.20;88.50
6536;DHT22;34330;52.08032700;5.40923460;2022-08-19T07:16:45;22.30;88.60
6536;DHT22;34330;52.08032700;5.40923460;2022-08-19T07:19:13;22.30;88.60
6536;DHT22;34330;52.08032700;5.40923460;2022-08-19T07:21:46;22.30;88.50
6536;DHT22;34330;52.08032700;5.40923460;2022-08-19T07:24:15;22.40;88.80
6536;DHT22;34330;52.08032700;5.40923460;2022-08-19T07:26:44;22.40;88.30
6536;DHT22;34330;52.08032700;5.40923460;2022-08-19T07:29:18;22.50;88.40
6536;DHT22;34330;52.08032700;5.40923460;2022-08-19T07:31:50;22.50;88.60
6536;DHT22;34330;52.08032700;5.40923460;2022-08-19T07:34:19;22.60;88.70
6536;DHT22;34330;52.08032700;5.40923460;2022-08-19T07:36:48;23.70;89.30
6536;DHT22;34330;52.08032700;5.40923460;2022-08-19T07:39:24;22.60;88.30
6536;DHT22;34330;52.08032700;5.40923460;2022-08-19T07:41:54;22.70;88.30
6536;DHT22;34330;52.08032700;5.40923460;2022-08-19T07:44:23;24.90;90.40
6536;DHT22;34330;52.08032700;5.40923460;2022-08-19T07:46:52;25.70;90.40
6536;DHT22;34330;52.08032700;5.40923460;2022-08-19T07:49:21;22.80;88.40
6536;DHT22;34330;52.08032700;5.40923460;2022-08-19T07:51:51;22.90;88.20
6536;DHT22;34330;52.08032700;5.40923460;2022-08-19T07:54:22;22.90;87.60
6536;DHT22;34330;52.08032700;5.40923460;2022-08-19T07:56:50;23.00;87.40
6536;DHT22;34330;52.08032700;5.40923460;2022-08-19T07:59:21;23.00;86.90
6536;DHT22;34330;52.08032700;5.40923460;2022-08-19T08:01:50;23.10;87.00
6536;DHT22;34330;52.08032700;5.40923460;2022-08-19T08:04:18;23.10;86.70
6536;DHT22;34330;52.08032700;5.40923460;2022-08-19T08:07:04;23.10;86.60
6536;DHT22;34330;52.08032700;5.40923460;2022-08-19T08:09:57;23.20;86.50
6536;DHT22;34330;52.08032700;5.40923460;2022-08-19T08:12:31;23.20;86.50
6536;DHT22;34330;52.08032700;5.40923460;2022-08-19T08:15:08;23.30;86.70
6536;DHT22;34330;52.08032700;5.40923460;2022-08-19T08:17:39;23.30;86.60
6536;DHT22;34330;52.08032700;5.40923460;2022-08-19T08:20:18;23.70;86.90
6536;DHT22;34330;52.08032700;5.40923460;2022-08-19T08:22:49;23.50;86.50
6536;DHT22;34330;52.08032700;5.40923460;2022-08-19T08:25:35;23.50;85.80
6536;DHT22;34330;52.08032700;5.40923460;2022-08-19T08:28:04;23.60;86.20
6536;DHT22;34330;52.08032700;5.40923460;2022-08-19T08:30:38;24.80;86.80
6536;DHT22;34330;52.08032700;5.40923460;2022-08-19T08:33:11;23.80;85.50
6536;DHT22;34330;52.08032700;5.40923460;2022-08-19T08:35:40;25.30;86.60
6536;DHT22;34330;52.08032700;5.40923460;2022-08-19T08:38:09;23.90;85.40
6536;DHT22;34330;52.08032700;5.40923460;2022-08-19T08:40:47;25.70;86.10
6536;DHT22;34330;52.08032700;5.40923460;2022-08-19T08:43:24;26.60;86.80
6536;DHT22;34330;52.08032700;5.40923460;2022-08-19T08:46:04;24.10;84.10
6536;DHT22;34330;52.08032700;5.40923460;2022-08-19T08:48:37;24.10;84.20
6536;DHT22;34330;52.08032700;5.40923460;2022-08-19T08:51:10;24.10;83.70
6536;DHT22;34330;52.08032700;5.40923460;2022-08-19T08:53:47;24.20;83.70
6536;DHT22;34330;52.08032700;5.40923460;2022-08-19T08:56:22;25.80;85.50
6536;DHT22;34330;52.08032700;5.40923460;2022-08-19T08:58:56;24.60;84.10
6536;DHT22;34330;52.08032700;5.40923460;2022-08-19T09:01:27;24.30;83.80
6536;DHT22;34330;52.08032700;5.40923460;2022-08-19T09:03:56;24.40;84.30
6536;DHT22;34330;52.08032700;5.40923460;2022-08-19T09:06:36;24.50;84.10
6536;DHT22;34330;52.08032700;5.40923460;2022-08-19T09:09:15;24.70;84.50
6536;DHT22;34330;52.08032700;5.40923460;2022-08-19T09:11:54;24.80;84.50
6536;DHT22;34330;52.08032700;5.40923460;2022-08-19T09:14:34;24.90;83.30
6536;DHT22;34330;52.08032700;5.40923460;2022-08-19T09:17:23;25.10;83.40
6536;DHT22;34330;52.08032700;5.40923460;2022-08-19T09:19:59;25.30;83.20
6536;DHT22;34330;52.08032700;5.40923460;2022-08-19T09:22:31;25.50;82.50
6536;DHT22;34330;52.08032700;5.40923460;2022-08-19T09:24:59;25.60;82.20
6536;DHT22;34330;52.08032700;5.40923460;2022-08-19T09:27:28;25.70;81.20
6536;DHT22;34330;52.08032700;5.40923460;2022-08-19T09:30:13;26.50;81.10
6536;DHT22;34330;52.08032700;5.40923460;2022-08-19T09:32:43;25.90;80.60
6536;DHT22;34330;52.08032700;5.40923460;2022-08-19T09:35:13;26.10;80.90
6536;DHT22;34330;52.08032700;5.40923460;2022-08-19T09:37:42;26.20;79.70
6536;DHT22;34330;52.08032700;5.40923460;2022-08-19T09:40:11;26.30;79.00
6536;DHT22;34330;52.08032700;5.40923460;2022-08-19T09:42:41;22.70;75.00
6536;DHT22;34330;52.08032700;5.40923460;2022-08-19T09:45:18;26.40;77.90
6536;DHT22;34330;52.08032700;5.40923460;2022-08-19T09:47:50;26.50;77.30
6536;DHT22;34330;52.08032700;5.40923460;2022-08-19T09:50:21;26.50;76.90
6536;DHT22;34330;52.08032700;5.40923460;2022-08-19T09:52:50;26.50;76.90
6536;DHT22;34330;52.08032700;5.40923460;2022-08-19T09:55:24;29.50;78.80
6536;DHT22;34330;52.08032700;5.40923460;2022-08-19T09:57:59;26.50;76.80
6536;DHT22;34330;52.08032700;5.40923460;2022-08-19T10:00:28;26.50;76.80
6536;DHT22;34330;52.08032700;5.40923460;2022-08-19T10:02:58;26.40;76.20
6536;DHT22;34330;52.08032700;5.40923460;2022-08-19T10:05:27;26.40;76.10
6536;DHT22;34330;52.08032700;5.40923460;2022-08-19T10:08:15;26.40;76.40
6536;DHT22;34330;52.08032700;5.40923460;2022-08-19T10:10:44;26.40;76.70
6536;DHT22;34330;52.08032700;5.40923460;2022-08-19T10:13:15;26.40;76.80
6536;DHT22;34330;52.08032700;5.40923460;2022-08-19T10:15:43;26.40;76.70
6536;DHT22;34330;52.08032700;5.40923460;2022-08-19T10:18:17;26.40;76.80
6536;DHT22;34330;52.08032700;5.40923460;2022-08-19T10:20:45;26.50;77.30
6536;DHT22;34330;52.08032700;5.40923460;2022-08-19T10:23:18;26.60;77.40
6536;DHT22;34330;52.08032700;5.40923460;2022-08-19T10:25:46;29.10;79.20
6536;DHT22;34330;52.08032700;5.40923460;2022-08-19T10:28:14;26.80;77.40
6536;DHT22;34330;52.08032700;5.40923460;2022-08-19T10:30:45;27.80;77.70
6536;DHT22;34330;52.08032700;5.40923460;2022-08-19T10:33:13;27.00;77.00
6536;DHT22;34330;52.08032700;5.40923460;2022-08-19T10:36:06;28.20;77.30
6536;DHT22;34330;52.08032700;5.40923460;2022-08-19T10:38:34;27.10;75.70
6536;DHT22;34330;52.08032700;5.40923460;2022-08-19T10:41:10;27.20;76.10
6536;DHT22;34330;52.08032700;5.40923460;2022-08-19T10:43:38;27.30;75.10
6536;DHT22;34330;52.08032700;5.40923460;2022-08-19T10:46:07;27.40;75.10
6536;DHT22;34330;52.08032700;5.40923460;2022-08-19T10:48:42;27.50;75.20
6536;DHT22;34330;52.08032700;5.40923460;2022-08-19T10:51:12;27.60;74.80
6536;DHT22;34330;52.08032700;5.40923460;2022-08-19T10:53:58;29.50;76.30
6536;DHT22;34330;52.08032700;5.40923460;2022-08-19T10:56:27;27.90;75.20
6536;DHT22;34330;52.08032700;5.40923460;2022-08-19T10:59:14;28.00;74.80
6536;DHT22;34330;52.08032700;5.40923460;2022-08-19T11:01:43;28.10;75.00
6536;DHT22;34330;52.08032700;5.40923460;2022-08-19T11:04:12;28.10;74.90
6536;DHT22;34330;52.08032700;5.40923460;2022-08-19T11:06:41;28.20;74.40
6536;DHT22;34330;52.08032700;5.40923460;2022-08-19T11:09:10;28.30;74.30
6536;DHT22;34330;52.08032700;5.40923460;2022-08-19T11:11:38;28.30;74.40
6536;DHT22;34330;52.08032700;5.40923460;2022-08-19T11:14:07;28.40;74.00
6536;DHT22;34330;52.08032700;5.40923460;2022-08-19T11:16:36;29.60;75.00
6536;DHT22;34330;52.08032700;5.40923460;2022-08-19T11:19:07;28.60;73.60
6536;DHT22;34330;52.08032700;5.40923460;2022-08-19T11:21:37;28.50;72.90
6536;DHT22;34330;52.08032700;5.40923460;2022-08-19T11:24:10;28.70;71.90
6536;DHT22;34330;52.08032700;5.40923460;2022-08-19T11:26:40;28.50;72.30
6536;DHT22;34330;52.08032700;5.40923460;2022-08-19T11:29:10;28.40;72.50
6536;DHT22;34330;52.08032700;5.40923460;2022-08-19T11:31:41;28.50;73.10
6536;DHT22;34330;52.08032700;5.40923460;2022-08-19T11:34:11;28.60;73.00
6536;DHT22;34330;52.08032700;5.40923460;2022-08-19T11:36:41;28.70;72.70
6536;DHT22;34330;52.08032700;5.40923460;2022-08-19T11:39:13;28.80;72.90
6536;DHT22;34330;52.08032700;5.40923460;2022-08-19T11:41:41;28.80;72.90
6536;DHT22;34330;52.08032700;5.40923460;2022-08-19T11:44:09;28.80;72.90
6536;DHT22;34330;52.08032700;5.40923460;2022-08-19T11:46:37;28.90;72.50
6536;DHT22;34330;52.08032700;5.40923460;2022-08-19T11:49:06;28.90;72.10
6536;DHT22;34330;52.08032700;5.40923460;2022-08-19T11:51:40;29.00;72.10
6536;DHT22;34330;52.08032700;5.40923460;2022-08-19T11:54:10;29.00;72.30
6536;DHT22;34330;52.08032700;5.40923460;2022-08-19T11:56:41;29.10;72.30
6536;DHT22;34330;52.08032700;5.40923460;2022-08-19T11:59:09;29.10;72.10
6536;DHT22;34330;52.08032700;5.40923460;2022-08-19T12:01:40;29.30;71.90
6536;DHT22;34330;52.08032700;5.40923460;2022-08-19T12:04:09;29.20;71.80
6536;DHT22;34330;52.08032700;5.40923460;2022-08-19T12:06:39;29.30;71.50
6536;DHT22;34330;52.08032700;5.40923460;2022-08-19T12:09:09;29.40;71.60
6536;DHT22;34330;52.08032700;5.40923460;2022-08-19T12:11:38;30.20;72.20
6536;DHT22;34330;52.08032700;5.40923460;2022-08-19T12:14:10;29.50;70.70
6536;DHT22;34330;52.08032700;5.40923460;2022-08-19T12:16:40;31.20;72.00
6536;DHT22;34330;52.08032700;5.40923460;2022-08-19T12:19:16;29.60;70.50
6536;DHT22;34330;52.08032700;5.40923460;2022-08-19T12:21:49;29.60;70.20
6536;DHT22;34330;52.08032700;5.40923460;2022-08-19T12:24:17;29.60;69.90
6536;DHT22;34330;52.08032700;5.40923460;2022-08-19T12:26:49;29.60;69.40
6536;DHT22;34330;52.08032700;5.40923460;2022-08-19T12:29:21;29.60;69.60
6536;DHT22;34330;52.08032700;5.40923460;2022-08-19T12:31:56;31.10;70.20
6536;DHT22;34330;52.08032700;5.40923460;2022-08-19T12:34:30;29.50;69.30
6536;DHT22;34330;52.08032700;5.40923460;2022-08-19T12:37:01;29.50;69.20
6536;DHT22;34330;52.08032700;5.40923460;2022-08-19T12:39:30;29.40;69.10
6536;DHT22;34330;52.08032700;5.40923460;2022-08-19T12:41:58;29.40;69.00
6536;DHT22;34330;52.08032700;5.40923460;2022-08-19T12:44:27;29.40;68.90
6536;DHT22;34330;52.08032700;5.40923460;2022-08-19T12:46:59;29.40;69.00
6536;DHT22;34330;52.08032700;5.40923460;2022-08-19T12:49:31;29.80;69.80
6536;DHT22;34330;52.08032700;5.40923460;2022-08-19T12:52:20;29.20;69.80
6536;DHT22;34330;52.08032700;5.40923460;2022-08-19T12:54:49;29.20;70.20
6536;DHT22;34330;52.08032700;5.40923460;2022-08-19T12:57:20;29.10;69.50
6536;DHT22;34330;52.08032700;5.40923460;2022-08-19T13:00:03;29.00;69.90
6536;DHT22;34330;52.08032700;5.40923460;2022-08-19T13:02:33;29.10;69.40
6536;DHT22;34330;52.08032700;5.40923460;2022-08-19T13:05:06;29.10;69.30
6536;DHT22;34330;52.08032700;5.40923460;2022-08-19T13:07:36;29.10;69.70
6536;DHT22;34330;52.08032700;5.40923460;2022-08-19T13:10:06;29.20;69.40
6536;DHT22;34330;52.08032700;5.40923460;2022-08-19T13:12:35;29.20;69.80
6536;DHT22;34330;52.08032700;5.40923460;2022-08-19T13:15:05;30.30;70.50
6536;DHT22;34330;52.08032700;5.40923460;2022-08-19T13:17:37;29.30;69.30
6536;DHT22;34330;52.08032700;5.40923460;2022-08-19T13:20:06;29.40;68.80
6536;DHT22;34330;52.08032700;5.40923460;2022-08-19T13:22:35;29.40;69.10
6536;DHT22;34330;52.08032700;5.40923460;2022-08-19T13:25:04;30.20;69.60
6536;DHT22;34330;52.08032700;5.40923460;2022-08-19T13:27:32;29.40;69.20
6536;DHT22;34330;52.08032700;5.40923460;2022-08-19T13:30:00;32.90;71.40
6536;DHT22;34330;52.08032700;5.40923460;2022-08-19T13:32:48;29.50;69.20
6536;DHT22;34330;52.08032700;5.40923460;2022-08-19T13:35:33;29.50;68.90
6536;DHT22;34330;52.08032700;5.40923460;2022-08-19T13:38:01;30.90;69.50
6536;DHT22;34330;52.08032700;5.40923460;2022-08-19T13:40:32;30.00;69.30
6536;DHT22;34330;52.08032700;5.40923460;2022-08-19T13:43:04;29.20;68.70
6536;DHT22;34330;52.08032700;5.40923460;2022-08-19T13:45:48;29.20;68.90
6536;DHT22;34330;52.08032700;5.40923460;2022-08-19T13:48:17;29.10;68.50
6536;DHT22;34330;52.08032700;5.40923460;2022-08-19T13:50:45;28.90;69.00
6536;DHT22;34330;52.08032700;5.40923460;2022-08-19T13:53:15;28.80;70.60
6536;DHT22;34330;52.08032700;5.40923460;2022-08-19T13:55:43;28.70;72.30
6536;DHT22;34330;52.08032700;5.40923460;2022-08-19T13:58:12;28.70;72.70